Time;durP1;ratioP1;P1;durP2;ratioP2;P2;SDS_P1;SDS_P2;PMS_P1;PMS_P2;Temp;Humidity;BMP_temperature;BMP_pressure;BME280_temperature;BME280_humidity;BME280_pressure;Samples;Min_cycle;Max_cycle;Signal;HPM_P1;HPM_P2
2023/04/22 15:12:12;;;;;;;17.17;11.55;;;15.60;99.90;;;;;;5109976;27;20323;-62
2023/04/22 15:14:38;;;;;;;18.30;11.63;;;15.60;99.90;;;;;;5118924;28;20019;-62
2023/04/22 15:17:04;;;;;;;20.05;12.55;;;15.60;99.90;;;;;;5124104;28;20494;-61
2023/04/22 15:19:30;;;;;;;17.83;12.05;;;15.80;99.90;;;;;;5110274;28;20028;-62
2023/04/22 15:21:56;;;;;;;17.45;12.05;;;15.90;99.90;;;;;;5110415;28;20099;-63
2023/04/22 15:24:23;;;;;;;15.60;11.60;;;15.90;99.90;;;;;;5109778;28;20103;-62
2023/04/22 15:26:50;;;;;;;16.00;11.98;;;16.00;99.90;;;;;;5109975;28;20042;-62
2023/04/22 15:29:16;;;;;;;15.27;11.23;;;16.10;99.90;;;;;;5108815;28;20016;-63
2023/04/22 15:31:43;;;;;;;18.95;11.55;;;16.00;99.90;;;;;;5109821;28;20038;-62
2023/04/22 15:34:08;;;;;;;18.00;12.10;;;16.00;99.90;;;;;;5110251;28;20053;-62
2023/04/22 15:36:34;;;;;;;17.35;12.25;;;16.10;99.90;;;;;;5110085;28;20062;-60
2023/04/22 15:39:00;;;;;;;16.98;11.73;;;16.10;99.90;;;;;;5109607;28;20027;-64
2023/04/22 15:41:25;;;;;;;16.10;11.63;;;16.10;99.90;;;;;;5108174;28;20460;-63
2023/04/22 15:43:52;;;;;;;16.65;11.18;;;16.10;99.90;;;;;;5108957;28;20020;-61
2023/04/22 15:46:19;;;;;;;16.35;11.90;;;16.10;99.90;;;;;;5109047;28;20027;-64
2023/04/22 15:48:46;;;;;;;17.63;11.52;;;16.10;99.90;;;;;;5107806;28;20028;-63
2023/04/22 15:51:15;;;;;;;16.85;11.90;;;16.10;99.90;;;;;;5109245;28;20032;-63
2023/04/22 15:53:41;;;;;;;15.52;11.25;;;16.10;99.90;;;;;;5125118;27;20034;-63
2023/04/22 15:56:08;;;;;;;16.60;11.18;;;16.30;99.90;;;;;;5128872;27;20019;-62
2023/04/22 15:58:34;;;;;;;15.43;10.95;;;16.40;99.90;;;;;;5129689;28;20023;-61
2023/04/22 16:00:59;;;;;;;16.50;11.93;;;16.50;99.90;;;;;;5129569;28;20027;-63
2023/04/22 16:03:25;;;;;;;18.42;11.75;;;16.60;99.90;;;;;;5128785;28;20091;-64
2023/04/22 16:05:50;;;;;;;17.13;11.85;;;16.60;99.90;;;;;;5127597;27;20446;-63
2023/04/22 16:08:16;;;;;;;20.85;14.60;;;16.60;99.90;;;;;;5127039;27;20022;-61
2023/04/22 16:10:42;;;;;;;20.63;14.85;;;16.60;99.90;;;;;;5106740;28;20048;-62
2023/04/22 16:13:09;;;;;;;19.63;14.70;;;16.60;99.90;;;;;;5108936;28;20370;-61
2023/04/22 16:15:34;;;;;;;37.53;27.13;;;16.50;99.90;;;;;;5109291;28;20020;-63
2023/04/22 16:18:01;;;;;;;28.83;21.08;;;16.50;99.90;;;;;;5121404;28;20033;-63
2023/04/22 16:20:26;;;;;;;27.27;20.48;;;16.50;99.90;;;;;;5128908;27;20024;-63
2023/04/22 16:22:52;;;;;;;25.70;17.88;;;16.50;99.90;;;;;;5118818;28;20027;-63
2023/04/22 16:25:18;;;;;;;25.20;17.58;;;16.40;99.90;;;;;;5114404;28;20114;-63
2023/04/22 16:27:43;;;;;;;21.27;16.38;;;16.50;99.90;;;;;;5115718;28;20491;-63
2023/04/22 16:30:09;;;;;;;44.05;33.22;;;16.40;99.90;;;;;;5115117;28;20027;-63
2023/04/22 16:32:35;;;;;;;26.13;18.60;;;16.40;99.90;;;;;;5098034;28;20115;-63
2023/04/22 16:35:01;;;;;;;25.63;19.70;;;16.20;99.90;;;;;;5095148;28;20044;-61
2023/04/22 16:37:27;;;;;;;60.45;42.78;;;16.20;99.90;;;;;;5094068;28;20103;-63
2023/04/22 16:39:52;;;;;;;69.88;51.33;;;16.10;99.90;;;;;;5095185;28;20112;-63
2023/04/22 16:42:18;;;;;;;36.17;25.40;;;16.10;99.90;;;;;;5096062;28;20016;-63
2023/04/22 16:44:43;;;;;;;28.50;20.75;;;16.00;99.90;;;;;;5094387;28;20089;-63
2023/04/22 16:47:09;;;;;;;21.80;13.98;;;15.90;99.90;;;;;;5094794;28;20380;-64
2023/04/22 16:49:34;;;;;;;19.25;13.50;;;15.90;99.90;;;;;;5094511;28;20012;-64
2023/04/22 16:52:00;;;;;;;20.20;14.77;;;15.90;99.90;;;;;;5092740;28;20064;-63
2023/04/22 16:54:26;;;;;;;17.83;12.68;;;15.70;99.90;;;;;;5093056;28;20023;-63
2023/04/22 16:56:51;;;;;;;18.13;12.27;;;15.70;99.90;;;;;;5095872;28;20032;-63
2023/04/22 16:59:17;;;;;;;15.70;10.90;;;15.70;99.90;;;;;;5093751;28;20494;-63
2023/04/22 17:01:43;;;;;;;18.23;12.25;;;15.60;99.90;;;;;;5094668;28;20050;-62
2023/04/22 17:04:10;;;;;;;56.38;37.78;;;15.60;99.90;;;;;;5094229;28;20103;-63
2023/04/22 17:06:35;;;;;;;78.68;56.17;;;15.50;99.90;;;;;;5094983;28;20028;-63
2023/04/22 17:09:02;;;;;;;94.47;67.50;;;15.50;99.90;;;;;;5092850;28;20031;-63
2023/04/22 17:11:31;;;;;;;100.20;73.47;;;15.40;99.90;;;;;;5093927;28;20492;-63
2023/04/22 17:13:56;;;;;;;57.97;40.10;;;15.40;99.90;;;;;;5094045;28;20016;-62
2023/04/22 17:16:22;;;;;;;52.53;37.03;;;15.30;99.90;;;;;;5103255;28;20493;-61
2023/04/22 17:18:48;;;;;;;30.65;21.33;;;15.30;99.90;;;;;;5114263;28;20012;-62
2023/04/22 17:21:15;;;;;;;37.42;27.17;;;15.20;99.90;;;;;;5112582;28;20026;-62
2023/04/22 17:23:41;;;;;;;15.05;10.80;;;15.10;99.90;;;;;;5113179;28;20020;-60
2023/04/22 17:26:07;;;;;;;10.25;6.57;;;15.10;99.90;;;;;;5113632;28;20031;-61
2023/04/22 17:28:33;;;;;;;10.07;7.05;;;15.10;99.90;;;;;;5113449;28;20020;-61
2023/04/22 17:30:58;;;;;;;10.75;6.40;;;15.00;99.90;;;;;;5112654;28;20122;-61
2023/04/22 17:33:25;;;;;;;13.77;9.45;;;15.00;99.90;;;;;;5097082;28;20131;-61
2023/04/22 17:35:51;;;;;;;14.68;10.85;;;15.00;99.90;;;;;;5093628;28;20024;-61
2023/04/22 17:38:17;;;;;;;14.57;10.70;;;14.80;99.90;;;;;;5093963;28;20077;-61
2023/04/22 17:40:42;;;;;;;14.02;10.10;;;14.60;99.90;;;;;;5101774;28;20027;-60
2023/04/22 17:43:08;;;;;;;11.68;8.60;;;14.40;99.90;;;;;;5113830;28;20024;-63
2023/04/22 17:45:34;;;;;;;13.35;9.10;;;14.10;99.90;;;;;;5114244;28;20030;-63
2023/04/22 17:47:59;;;;;;;13.23;9.10;;;13.90;99.90;;;;;;5111884;28;20031;-63
2023/04/22 17:50:25;;;;;;;13.30;9.15;;;13.80;99.90;;;;;;5113870;28;20034;-63
2023/04/22 17:52:51;;;;;;;10.65;7.72;;;13.60;99.90;;;;;;5113860;28;20380;-63
2023/04/22 17:55:16;;;;;;;12.57;8.65;;;13.50;99.90;;;;;;5092712;28;20091;-63
2023/04/22 17:57:42;;;;;;;13.93;9.30;;;13.30;99.90;;;;;;5093287;28;20392;-63
2023/04/22 18:00:09;;;;;;;13.15;8.70;;;13.20;99.90;;;;;;5091562;28;20469;-63
2023/04/22 18:02:35;;;;;;;14.77;9.80;;;13.10;99.90;;;;;;5091364;28;20071;-64
2023/04/22 18:05:00;;;;;;;16.60;10.80;;;13.00;99.90;;;;;;5093426;28;20476;-63
2023/04/22 18:07:26;;;;;;;15.40;11.02;;;12.90;99.90;;;;;;5092850;28;20065;-63
2023/04/22 18:09:52;;;;;;;17.13;10.93;;;12.80;99.90;;;;;;5092952;28;20039;-63
2023/04/22 18:12:19;;;;;;;15.20;9.73;;;12.80;99.90;;;;;;5092878;28;20388;-64
2023/04/22 18:14:45;;;;;;;15.20;10.57;;;12.70;99.90;;;;;;5109554;28;20042;-64
2023/04/22 18:17:12;;;;;;;17.80;11.20;;;12.60;99.90;;;;;;5112288;28;20016;-63
2023/04/22 18:19:37;;;;;;;17.20;11.77;;;12.60;99.90;;;;;;5113140;28;20011;-63
2023/04/22 18:22:03;;;;;;;18.45;12.20;;;12.50;99.90;;;;;;5112862;28;20023;-63
2023/04/22 18:24:29;;;;;;;19.02;12.48;;;12.60;99.90;;;;;;5111471;28;20055;-63
2023/04/22 18:26:55;;;;;;;19.50;12.05;;;12.50;99.90;;;;;;5112998;28;20452;-62
2023/04/22 18:29:20;;;;;;;17.15;10.98;;;12.40;99.90;;;;;;5110883;28;20118;-62
2023/04/22 18:31:46;;;;;;;18.95;11.95;;;12.40;99.90;;;;;;5112816;28;20107;-63
2023/04/22 18:34:14;;;;;;;20.85;12.27;;;12.40;99.90;;;;;;5111708;28;20065;-62
2023/04/22 18:36:40;;;;;;;20.20;12.43;;;12.40;99.90;;;;;;5112611;28;20092;-62
2023/04/22 18:39:06;;;;;;;18.67;11.52;;;12.40;99.90;;;;;;5112775;28;20471;-62
2023/04/22 18:41:32;;;;;;;17.35;11.82;;;12.30;99.90;;;;;;5106280;28;20020;-64
2023/04/22 18:43:57;;;;;;;18.58;11.80;;;12.30;99.90;;;;;;5091996;28;20057;-62
2023/04/22 18:46:23;;;;;;;18.27;12.35;;;12.30;99.90;;;;;;5091903;28;20115;-63
2023/04/22 18:48:48;;;;;;;20.73;13.20;;;12.30;99.90;;;;;;5092359;28;20108;-62
2023/04/22 18:51:14;;;;;;;17.90;11.98;;;12.20;99.90;;;;;;5091761;28;20031;-63
2023/04/22 18:53:40;;;;;;;20.35;12.70;;;12.20;99.90;;;;;;5091262;28;20024;-63
2023/04/22 18:56:05;;;;;;;22.48;14.52;;;12.30;99.90;;;;;;5092432;28;20031;-63
2023/04/22 18:58:31;;;;;;;21.50;13.70;;;12.30;99.90;;;;;;5091624;28;20050;-63
2023/04/22 19:00:57;;;;;;;22.23;14.23;;;12.30;99.90;;;;;;5092399;28;20578;-62
2023/04/22 19:03:22;;;;;;;21.88;14.63;;;12.20;99.90;;;;;;5093422;28;20063;-62
2023/04/22 19:05:48;;;;;;;25.00;15.20;;;12.20;99.90;;;;;;5090460;28;20119;-63
2023/04/22 19:08:13;;;;;;;25.15;16.13;;;12.20;99.90;;;;;;5092049;28;20031;-63
2023/04/22 19:10:39;;;;;;;25.40;16.95;;;12.10;99.90;;;;;;5091651;28;20056;-63
2023/04/22 19:13:05;;;;;;;26.77;17.17;;;12.10;99.90;;;;;;5091422;28;20063;-63
2023/04/22 19:15:30;;;;;;;27.63;16.88;;;12.10;99.90;;;;;;5091174;28;20081;-63
2023/04/22 19:17:56;;;;;;;27.35;16.75;;;12.00;99.90;;;;;;5099041;28;20020;-63
2023/04/22 19:20:22;;;;;;;29.00;18.05;;;12.00;99.90;;;;;;5099233;28;20024;-62
2023/04/22 19:22:47;;;;;;;32.97;18.70;;;11.90;99.90;;;;;;5091778;28;20044;-63
2023/04/22 19:25:13;;;;;;;31.73;17.75;;;12.00;99.90;;;;;;5091506;28;20023;-62
2023/04/22 19:27:39;;;;;;;31.13;19.70;;;11.90;99.90;;;;;;5091277;28;20028;-63
2023/04/22 19:30:06;;;;;;;32.60;19.05;;;11.90;99.90;;;;;;5091685;28;20480;-63
2023/04/22 19:32:31;;;;;;;29.98;19.30;;;11.80;99.90;;;;;;5092114;28;20028;-62
2023/04/22 19:34:57;;;;;;;31.05;18.05;;;11.70;99.90;;;;;;5092801;28;20027;-63
2023/04/22 19:37:22;;;;;;;32.25;19.25;;;11.70;99.90;;;;;;5091640;28;20043;-63
2023/04/22 19:39:48;;;;;;;33.47;19.48;;;11.60;99.90;;;;;;5091338;28;20029;-62
2023/04/22 19:42:14;;;;;;;36.75;21.00;;;11.60;99.90;;;;;;5102317;28;20024;-62
2023/04/22 19:44:45;;;;;;;36.17;21.33;;;11.50;99.90;;;;;;5112653;28;20353;-63
2023/04/22 19:47:11;;;;;;;39.50;22.45;;;11.40;99.90;;;;;;5111268;28;20027;-64
2023/04/22 19:49:37;;;;;;;39.05;21.88;;;11.30;99.90;;;;;;5112148;28;20035;-64
2023/04/22 19:52:03;;;;;;;41.50;22.50;;;11.20;99.90;;;;;;5099831;28;20039;-63
2023/04/22 19:54:29;;;;;;;39.47;21.88;;;11.20;99.90;;;;;;5091143;28;20024;-62
2023/04/22 19:56:57;;;;;;;45.20;23.88;;;11.10;99.90;;;;;;5090759;28;20078;-63
2023/04/22 19:59:23;;;;;;;39.72;20.98;;;11.10;99.90;;;;;;5095713;28;20027;-64
2023/04/22 20:01:48;;;;;;;43.30;22.77;;;10.90;99.90;;;;;;5094939;28;20024;-62
2023/04/22 20:04:14;;;;;;;40.67;22.92;;;10.80;99.90;;;;;;5095122;28;20464;-62
2023/04/22 20:06:43;;;;;;;36.90;21.35;;;10.70;99.90;;;;;;5095498;28;20032;-62
2023/04/22 20:09:09;;;;;;;40.42;21.90;;;10.70;99.90;;;;;;5100382;28;20022;-62
2023/04/22 20:11:35;;;;;;;44.10;22.70;;;10.60;99.90;;;;;;5115940;28;20113;-62
2023/04/22 20:14:03;;;;;;;43.25;23.02;;;10.50;99.90;;;;;;5112900;28;20037;-63
2023/04/22 20:16:29;;;;;;;42.92;23.63;;;10.50;99.90;;;;;;5107752;28;20024;-63
2023/04/22 20:18:54;;;;;;;46.95;24.63;;;10.50;99.90;;;;;;5094860;28;20957;-63
2023/04/22 20:21:22;;;;;;;45.10;24.42;;;10.50;99.90;;;;;;5095067;28;20480;-64
2023/04/22 20:23:50;;;;;;;47.55;25.02;;;10.50;99.90;;;;;;5110254;28;20015;-63
